sensor_id;sensor_type;location;lat;lon;timestamp;P1;durP1;ratioP1;P2;durP2;ratioP2
21771;SDS011;11047;47.904;8.110;2023-03-01T00:01:24;7.20;;;6.50;;
21771;SDS011;11047;47.904;8.110;2023-03-01T00:03:52;7.38;;;6.57;;
21771;SDS011;11047;47.904;8.110;2023-03-01T00:06:20;8.25;;;7.07;;
21771;SDS011;11047;47.904;8.110;2023-03-01T00:08:48;7.07;;;6.38;;
21771;SDS011;11047;47.904;8.110;2023-03-01T00:11:16;7.15;;;6.45;;
21771;SDS011;11047;47.904;8.110;2023-03-01T00:13:45;7.05;;;6.35;;
21771;SDS011;11047;47.904;8.110;2023-03-01T00:16:15;8.63;;;6.57;;
21771;SDS011;11047;47.904;8.110;2023-03-01T00:18:44;8.68;;;6.63;;
21771;SDS011;11047;47.904;8.110;2023-03-01T00:21:11;6.45;;;5.75;;
21771;SDS011;11047;47.904;8.110;2023-03-01T00:23:38;8.10;;;6.88;;
21771;SDS011;11047;47.904;8.110;2023-03-01T00:26:05;7.43;;;6.65;;
21771;SDS011;11047;47.904;8.110;2023-03-01T00:28:34;7.55;;;6.55;;
21771;SDS011;11047;47.904;8.110;2023-03-01T00:31:02;7.43;;;6.70;;
21771;SDS011;11047;47.904;8.110;2023-03-01T00:33:31;10.45;;;6.82;;
21771;SDS011;11047;47.904;8.110;2023-03-01T00:35:58;8.18;;;7.03;;
21771;SDS011;11047;47.904;8.110;2023-03-01T00:38:26;7.63;;;6.38;;
21771;SDS011;11047;47.904;8.110;2023-03-01T00:40:53;8.48;;;7.68;;
21771;SDS011;11047;47.904;8.110;2023-03-01T00:43:20;8.43;;;7.32;;
21771;SDS011;11047;47.904;8.110;2023-03-01T00:45:48;7.40;;;6.60;;
21771;SDS011;11047;47.904;8.110;2023-03-01T00:48:14;8.48;;;7.40;;
21771;SDS011;11047;47.904;8.110;2023-03-01T00:50:43;7.20;;;6.38;;
21771;SDS011;11047;47.904;8.110;2023-03-01T00:53:09;7.95;;;7.15;;
21771;SDS011;11047;47.904;8.110;2023-03-01T00:55:36;7.75;;;6.40;;
21771;SDS011;11047;47.904;8.110;2023-03-01T00:58:03;8.15;;;7.35;;
21771;SDS011;11047;47.904;8.110;2023-03-01T01:00:30;9.07;;;7.20;;
21771;SDS011;11047;47.904;8.110;2023-03-01T01:02:57;7.43;;;6.72;;
21771;SDS011;11047;47.904;8.110;2023-03-01T01:05:24;7.70;;;6.90;;
21771;SDS011;11047;47.904;8.110;2023-03-01T01:07:52;7.53;;;6.75;;
21771;SDS011;11047;47.904;8.110;2023-03-01T01:10:19;8.10;;;7.30;;
21771;SDS011;11047;47.904;8.110;2023-03-01T01:12:46;8.70;;;7.78;;
21771;SDS011;11047;47.904;8.110;2023-03-01T01:15:13;9.85;;;7.63;;
21771;SDS011;11047;47.904;8.110;2023-03-01T01:17:41;7.93;;;7.15;;
21771;SDS011;11047;47.904;8.110;2023-03-01T01:20:09;8.38;;;7.10;;
21771;SDS011;11047;47.904;8.110;2023-03-01T01:22:36;8.68;;;7.78;;
21771;SDS011;11047;47.904;8.110;2023-03-01T01:25:05;8.70;;;7.80;;
21771;SDS011;11047;47.904;8.110;2023-03-01T01:27:32;9.27;;;7.78;;
21771;SDS011;11047;47.904;8.110;2023-03-01T01:29:59;8.35;;;7.50;;
21771;SDS011;11047;47.904;8.110;2023-03-01T01:32:26;9.05;;;8.15;;
21771;SDS011;11047;47.904;8.110;2023-03-01T01:34:53;8.73;;;7.82;;
21771;SDS011;11047;47.904;8.110;2023-03-01T01:37:20;9.05;;;8.13;;
21771;SDS011;11047;47.904;8.110;2023-03-01T01:39:47;8.85;;;7.70;;
21771;SDS011;11047;47.904;8.110;2023-03-01T01:42:16;7.93;;;7.20;;
21771;SDS011;11047;47.904;8.110;2023-03-01T01:44:44;8.32;;;7.45;;
21771;SDS011;11047;47.904;8.110;2023-03-01T01:47:14;8.70;;;7.80;;
21771;SDS011;11047;47.904;8.110;2023-03-01T01:49:44;9.70;;;8.18;;
21771;SDS011;11047;47.904;8.110;2023-03-01T01:52:16;9.65;;;7.10;;
21771;SDS011;11047;47.904;8.110;2023-03-01T01:54:47;8.52;;;7.63;;
21771;SDS011;11047;47.904;8.110;2023-03-01T01:57:18;8.20;;;7.40;;
21771;SDS011;11047;47.904;8.110;2023-03-01T01:59:49;8.68;;;7.82;;
21771;SDS011;11047;47.904;8.110;2023-03-01T02:02:18;8.98;;;8.07;;
21771;SDS011;11047;47.904;8.110;2023-03-01T02:04:46;9.40;;;8.40;;
21771;SDS011;11047;47.904;8.110;2023-03-01T02:07:15;8.77;;;7.88;;
21771;SDS011;11047;47.904;8.110;2023-03-01T02:09:43;8.30;;;7.50;;
21771;SDS011;11047;47.904;8.110;2023-03-01T02:12:13;10.32;;;8.38;;
21771;SDS011;11047;47.904;8.110;2023-03-01T02:14:43;9.10;;;7.78;;
21771;SDS011;11047;47.904;8.110;2023-03-01T02:17:10;9.02;;;8.13;;
21771;SDS011;11047;47.904;8.110;2023-03-01T02:19:41;9.45;;;8.00;;
21771;SDS011;11047;47.904;8.110;2023-03-01T02:22:18;9.15;;;8.05;;
21771;SDS011;11047;47.904;8.110;2023-03-01T02:24:51;8.82;;;7.80;;
21771;SDS011;11047;47.904;8.110;2023-03-01T02:27:31;8.88;;;7.97;;
21771;SDS011;11047;47.904;8.110;2023-03-01T02:30:05;8.07;;;7.28;;
21771;SDS011;11047;47.904;8.110;2023-03-01T02:32:37;8.98;;;7.82;;
21771;SDS011;11047;47.904;8.110;2023-03-01T02:35:07;9.30;;;8.32;;
21771;SDS011;11047;47.904;8.110;2023-03-01T02:37:36;8.65;;;7.75;;
21771;SDS011;11047;47.904;8.110;2023-03-01T02:40:05;9.68;;;8.68;;
21771;SDS011;11047;47.904;8.110;2023-03-01T02:42:37;9.32;;;8.43;;
21771;SDS011;11047;47.904;8.110;2023-03-01T02:47:38;9.40;;;7.90;;
21771;SDS011;11047;47.904;8.110;2023-03-01T02:50:10;8.40;;;7.57;;
21771;SDS011;11047;47.904;8.110;2023-03-01T02:52:43;9.38;;;8.38;;
21771;SDS011;11047;47.904;8.110;2023-03-01T02:55:14;9.35;;;8.35;;
21771;SDS011;11047;47.904;8.110;2023-03-01T02:57:43;9.18;;;8.05;;
21771;SDS011;11047;47.904;8.110;2023-03-01T03:00:18;8.73;;;7.82;;
21771;SDS011;11047;47.904;8.110;2023-03-01T03:02:47;8.57;;;7.63;;
21771;SDS011;11047;47.904;8.110;2023-03-01T03:05:16;8.15;;;7.43;;
21771;SDS011;11047;47.904;8.110;2023-03-01T03:07:45;8.45;;;7.65;;
21771;SDS011;11047;47.904;8.110;2023-03-01T03:10:14;8.45;;;7.57;;
21771;SDS011;11047;47.904;8.110;2023-03-01T03:12:47;9.48;;;7.90;;
21771;SDS011;11047;47.904;8.110;2023-03-01T03:15:17;8.82;;;7.40;;
21771;SDS011;11047;47.904;8.110;2023-03-01T03:17:45;8.93;;;8.02;;
21771;SDS011;11047;47.904;8.110;2023-03-01T03:20:13;8.23;;;7.38;;
21771;SDS011;11047;47.904;8.110;2023-03-01T03:22:44;7.95;;;6.57;;
21771;SDS011;11047;47.904;8.110;2023-03-01T03:25:10;7.80;;;7.07;;
21771;SDS011;11047;47.904;8.110;2023-03-01T03:27:37;8.77;;;7.88;;
21771;SDS011;11047;47.904;8.110;2023-03-01T03:30:06;9.00;;;8.10;;
21771;SDS011;11047;47.904;8.110;2023-03-01T03:32:36;9.40;;;8.10;;
21771;SDS011;11047;47.904;8.110;2023-03-01T03:35:03;8.32;;;7.53;;
21771;SDS011;11047;47.904;8.110;2023-03-01T03:37:34;8.90;;;8.00;;
21771;SDS011;11047;47.904;8.110;2023-03-01T03:40:19;7.70;;;6.93;;
21771;SDS011;11047;47.904;8.110;2023-03-01T03:42:46;8.10;;;7.30;;
21771;SDS011;11047;47.904;8.110;2023-03-01T03:45:13;8.23;;;7.40;;
21771;SDS011;11047;47.904;8.110;2023-03-01T03:47:41;8.50;;;7.70;;
21771;SDS011;11047;47.904;8.110;2023-03-01T03:50:09;8.25;;;7.45;;
21771;SDS011;11047;47.904;8.110;2023-03-01T03:52:36;7.60;;;6.82;;
21771;SDS011;11047;47.904;8.110;2023-03-01T03:55:04;9.18;;;7.53;;
21771;SDS011;11047;47.904;8.110;2023-03-01T03:57:35;8.88;;;7.50;;
21771;SDS011;11047;47.904;8.110;2023-03-01T04:00:02;12.20;;;7.78;;
21771;SDS011;11047;47.904;8.110;2023-03-01T04:02:31;7.47;;;6.68;;
21771;SDS011;11047;47.904;8.110;2023-03-01T04:04:59;9.45;;;7.28;;
21771;SDS011;11047;47.904;8.110;2023-03-01T04:07:26;8.77;;;7.28;;
21771;SDS011;11047;47.904;8.110;2023-03-01T04:09:53;8.30;;;7.50;;
21771;SDS011;11047;47.904;8.110;2023-03-01T04:12:19;7.88;;;7.07;;
21771;SDS011;11047;47.904;8.110;2023-03-01T04:14:48;7.50;;;6.75;;
21771;SDS011;11047;47.904;8.110;2023-03-01T04:17:15;9.15;;;8.02;;
21771;SDS011;11047;47.904;8.110;2023-03-01T04:19:41;8.52;;;7.63;;
21771;SDS011;11047;47.904;8.110;2023-03-01T04:22:10;10.95;;;8.40;;
21771;SDS011;11047;47.904;8.110;2023-03-01T04:24:42;12.80;;;7.93;;
21771;SDS011;11047;47.904;8.110;2023-03-01T04:27:09;8.35;;;7.55;;
21771;SDS011;11047;47.904;8.110;2023-03-01T04:29:36;8.52;;;7.35;;
21771;SDS011;11047;47.904;8.110;2023-03-01T04:32:03;9.45;;;8.48;;
21771;SDS011;11047;47.904;8.110;2023-03-01T04:34:30;10.30;;;7.75;;
21771;SDS011;11047;47.904;8.110;2023-03-01T04:36:57;8.70;;;7.80;;
21771;SDS011;11047;47.904;8.110;2023-03-01T04:39:25;9.15;;;7.85;;
21771;SDS011;11047;47.904;8.110;2023-03-01T04:41:52;9.60;;;8.55;;
21771;SDS011;11047;47.904;8.110;2023-03-01T04:44:19;8.98;;;8.07;;
21771;SDS011;11047;47.904;8.110;2023-03-01T04:46:48;10.15;;;8.27;;
21771;SDS011;11047;47.904;8.110;2023-03-01T04:49:15;10.82;;;7.75;;
21771;SDS011;11047;47.904;8.110;2023-03-01T04:51:42;9.27;;;8.27;;
21771;SDS011;11047;47.904;8.110;2023-03-01T04:54:09;8.40;;;7.47;;
21771;SDS011;11047;47.904;8.110;2023-03-01T04:56:37;8.82;;;7.93;;
21771;SDS011;11047;47.904;8.110;2023-03-01T04:59:04;9.77;;;8.18;;
21771;SDS011;11047;47.904;8.110;2023-03-01T05:01:33;10.57;;;8.10;;
21771;SDS011;11047;47.904;8.110;2023-03-01T05:04:00;10.02;;;8.85;;
21771;SDS011;11047;47.904;8.110;2023-03-01T05:06:30;9.57;;;8.57;;
21771;SDS011;11047;47.904;8.110;2023-03-01T05:08:57;8.90;;;8.00;;
21771;SDS011;11047;47.904;8.110;2023-03-01T05:11:24;9.93;;;8.45;;
21771;SDS011;11047;47.904;8.110;2023-03-01T05:13:54;9.23;;;8.30;;
21771;SDS011;11047;47.904;8.110;2023-03-01T05:16:21;9.60;;;8.52;;
21771;SDS011;11047;47.904;8.110;2023-03-01T05:18:48;9.25;;;8.25;;
21771;SDS011;11047;47.904;8.110;2023-03-01T05:21:16;9.73;;;8.73;;
21771;SDS011;11047;47.904;8.110;2023-03-01T05:23:43;9.90;;;7.82;;
21771;SDS011;11047;47.904;8.110;2023-03-01T05:26:11;10.85;;;9.43;;
21771;SDS011;11047;47.904;8.110;2023-03-01T05:28:40;9.80;;;8.63;;
21771;SDS011;11047;47.904;8.110;2023-03-01T05:31:08;10.35;;;8.68;;
21771;SDS011;11047;47.904;8.110;2023-03-01T05:33:35;10.77;;;8.82;;
21771;SDS011;11047;47.904;8.110;2023-03-01T05:36:03;9.20;;;8.30;;
21771;SDS011;11047;47.904;8.110;2023-03-01T05:38:30;10.10;;;9.07;;
21771;SDS011;11047;47.904;8.110;2023-03-01T05:40:57;11.55;;;8.45;;
21771;SDS011;11047;47.904;8.110;2023-03-01T05:43:24;9.88;;;8.45;;
21771;SDS011;11047;47.904;8.110;2023-03-01T05:45:51;9.50;;;8.13;;
21771;SDS011;11047;47.904;8.110;2023-03-01T05:48:19;9.82;;;8.68;;
21771;SDS011;11047;47.904;8.110;2023-03-01T05:50:46;8.68;;;7.75;;
21771;SDS011;11047;47.904;8.110;2023-03-01T05:53:14;9.85;;;8.55;;
21771;SDS011;11047;47.904;8.110;2023-03-01T05:55:41;11.27;;;8.55;;
21771;SDS011;11047;47.904;8.110;2023-03-01T05:58:11;10.50;;;8.18;;
21771;SDS011;11047;47.904;8.110;2023-03-01T06:00:40;8.98;;;8.05;;
21771;SDS011;11047;47.904;8.110;2023-03-01T06:03:09;8.77;;;7.88;;
21771;SDS011;11047;47.904;8.110;2023-03-01T06:05:38;8.80;;;7.88;;
21771;SDS011;11047;47.904;8.110;2023-03-01T06:08:05;9.30;;;7.95;;
21771;SDS011;11047;47.904;8.110;2023-03-01T06:10:33;8.93;;;8.02;;
21771;SDS011;11047;47.904;8.110;2023-03-01T06:12:59;9.00;;;8.10;;
21771;SDS011;11047;47.904;8.110;2023-03-01T06:15:26;9.95;;;8.73;;
21771;SDS011;11047;47.904;8.110;2023-03-01T06:17:54;8.25;;;7.45;;
21771;SDS011;11047;47.904;8.110;2023-03-01T06:20:22;9.45;;;8.45;;
21771;SDS011;11047;47.904;8.110;2023-03-01T06:22:59;10.45;;;8.95;;
21771;SDS011;11047;47.904;8.110;2023-03-01T06:25:26;8.43;;;7.32;;
21771;SDS011;11047;47.904;8.110;2023-03-01T06:27:53;9.10;;;8.13;;
21771;SDS011;11047;47.904;8.110;2023-03-01T06:30:21;9.18;;;8.10;;
21771;SDS011;11047;47.904;8.110;2023-03-01T06:32:49;10.25;;;8.73;;
21771;SDS011;11047;47.904;8.110;2023-03-01T06:35:16;10.65;;;8.93;;
21771;SDS011;11047;47.904;8.110;2023-03-01T06:37:45;9.52;;;8.52;;
21771;SDS011;11047;47.904;8.110;2023-03-01T06:40:14;9.35;;;7.90;;
21771;SDS011;11047;47.904;8.110;2023-03-01T06:42:42;10.10;;;8.60;;
21771;SDS011;11047;47.904;8.110;2023-03-01T06:45:13;10.73;;;8.15;;
21771;SDS011;11047;47.904;8.110;2023-03-01T06:47:40;10.23;;;8.98;;
21771;SDS011;11047;47.904;8.110;2023-03-01T06:50:07;8.60;;;7.75;;
21771;SDS011;11047;47.904;8.110;2023-03-01T06:52:35;9.30;;;8.02;;
21771;SDS011;11047;47.904;8.110;2023-03-01T06:55:02;8.77;;;7.88;;
21771;SDS011;11047;47.904;8.110;2023-03-01T06:57:31;9.20;;;8.10;;
21771;SDS011;11047;47.904;8.110;2023-03-01T06:59:58;9.77;;;8.77;;
21771;SDS011;11047;47.904;8.110;2023-03-01T07:02:25;9.63;;;7.75;;
21771;SDS011;11047;47.904;8.110;2023-03-01T07:04:52;9.18;;;7.93;;
21771;SDS011;11047;47.904;8.110;2023-03-01T07:07:19;8.55;;;7.65;;
21771;SDS011;11047;47.904;8.110;2023-03-01T07:09:45;8.27;;;7.47;;
21771;SDS011;11047;47.904;8.110;2023-03-01T07:12:12;8.77;;;7.88;;
21771;SDS011;11047;47.904;8.110;2023-03-01T07:14:41;9.63;;;7.72;;
21771;SDS011;11047;47.904;8.110;2023-03-01T07:17:09;8.23;;;7.40;;
21771;SDS011;11047;47.904;8.110;2023-03-01T07:19:36;9.02;;;8.13;;
21771;SDS011;11047;47.904;8.110;2023-03-01T07:22:03;9.48;;;8.43;;
21771;SDS011;11047;47.904;8.110;2023-03-01T07:24:32;10.57;;;8.32;;
21771;SDS011;11047;47.904;8.110;2023-03-01T07:26:59;10.02;;;8.65;;
21771;SDS011;11047;47.904;8.110;2023-03-01T07:45:24;9.70;;;8.70;;
21771;SDS011;11047;47.904;8.110;2023-03-01T07:47:51;18.08;;;8.25;;
21771;SDS011;11047;47.904;8.110;2023-03-01T07:50:18;8.80;;;7.65;;
21771;SDS011;11047;47.904;8.110;2023-03-01T07:52:46;10.00;;;8.68;;
21771;SDS011;11047;47.904;8.110;2023-03-01T07:55:14;8.75;;;7.80;;
21771;SDS011;11047;47.904;8.110;2023-03-01T07:57:41;10.32;;;7.70;;
21771;SDS011;11047;47.904;8.110;2023-03-01T08:00:09;10.43;;;8.43;;
21771;SDS011;11047;47.904;8.110;2023-03-01T08:02:39;8.32;;;7.47;;
21771;SDS011;11047;47.904;8.110;2023-03-01T08:05:07;8.65;;;7.70;;
21771;SDS011;11047;47.904;8.110;2023-03-01T08:07:34;8.63;;;7.55;;
21771;SDS011;11047;47.904;8.110;2023-03-01T08:10:01;9.38;;;8.40;;
21771;SDS011;11047;47.904;8.110;2023-03-01T08:12:28;8.80;;;7.90;;
21771;SDS011;11047;47.904;8.110;2023-03-01T08:14:55;8.45;;;7.57;;
21771;SDS011;11047;47.904;8.110;2023-03-01T08:17:22;11.02;;;8.20;;
21771;SDS011;11047;47.904;8.110;2023-03-01T08:19:51;9.43;;;7.13;;
21771;SDS011;11047;47.904;8.110;2023-03-01T08:22:18;8.80;;;7.90;;
21771;SDS011;11047;47.904;8.110;2023-03-01T08:24:45;9.45;;;8.07;;
21771;SDS011;11047;47.904;8.110;2023-03-01T08:27:14;9.05;;;7.57;;
21771;SDS011;11047;47.904;8.110;2023-03-01T08:29:41;8.60;;;7.40;;
21771;SDS011;11047;47.904;8.110;2023-03-01T08:32:08;9.90;;;8.15;;
21771;SDS011;11047;47.904;8.110;2023-03-01T08:34:35;8.48;;;7.10;;
21771;SDS011;11047;47.904;8.110;2023-03-01T08:37:03;10.05;;;7.32;;
21771;SDS011;11047;47.904;8.110;2023-03-01T08:39:30;9.00;;;7.70;;
21771;SDS011;11047;47.904;8.110;2023-03-01T08:41:57;9.05;;;8.15;;
21771;SDS011;11047;47.904;8.110;2023-03-01T08:44:24;9.63;;;7.90;;
21771;SDS011;11047;47.904;8.110;2023-03-01T08:46:51;9.15;;;7.50;;
21771;SDS011;11047;47.904;8.110;2023-03-01T08:49:20;7.90;;;7.20;;
21771;SDS011;11047;47.904;8.110;2023-03-01T08:51:47;8.50;;;7.60;;
21771;SDS011;11047;47.904;8.110;2023-03-01T08:54:16;8.73;;;7.82;;
21771;SDS011;11047;47.904;8.110;2023-03-01T08:56:45;9.35;;;8.18;;
21771;SDS011;11047;47.904;8.110;2023-03-01T08:59:12;7.88;;;7.07;;
21771;SDS011;11047;47.904;8.110;2023-03-01T09:01:41;9.40;;;7.90;;
21771;SDS011;11047;47.904;8.110;2023-03-01T09:04:09;10.68;;;8.10;;
21771;SDS011;11047;47.904;8.110;2023-03-01T09:06:36;8.95;;;8.05;;
21771;SDS011;11047;47.904;8.110;2023-03-01T09:09:04;9.00;;;7.80;;
21771;SDS011;11047;47.904;8.110;2023-03-01T09:11:34;8.25;;;7.32;;
21771;SDS011;11047;47.904;8.110;2023-03-01T09:14:04;7.85;;;6.75;;
21771;SDS011;11047;47.904;8.110;2023-03-01T09:16:31;7.82;;;7.03;;
21771;SDS011;11047;47.904;8.110;2023-03-01T09:19:01;7.80;;;7.00;;
21771;SDS011;11047;47.904;8.110;2023-03-01T09:21:28;8.07;;;6.45;;
21771;SDS011;11047;47.904;8.110;2023-03-01T09:23:55;8.32;;;7.28;;
21771;SDS011;11047;47.904;8.110;2023-03-01T09:26:23;9.27;;;7.57;;
21771;SDS011;11047;47.904;8.110;2023-03-01T09:28:52;8.25;;;7.40;;
21771;SDS011;11047;47.904;8.110;2023-03-01T09:31:21;8.75;;;7.38;;
21771;SDS011;11047;47.904;8.110;2023-03-01T09:33:49;6.88;;;6.15;;
21771;SDS011;11047;47.904;8.110;2023-03-01T09:36:18;6.78;;;6.07;;
21771;SDS011;11047;47.904;8.110;2023-03-01T09:38:46;7.15;;;6.45;;
21771;SDS011;11047;47.904;8.110;2023-03-01T09:41:18;7.18;;;6.47;;
21771;SDS011;11047;47.904;8.110;2023-03-01T09:44:08;7.57;;;6.82;;
21771;SDS011;11047;47.904;8.110;2023-03-01T09:46:43;7.22;;;6.57;;
21771;SDS011;11047;47.904;8.110;2023-03-01T09:49:12;7.72;;;7.00;;
21771;SDS011;11047;47.904;8.110;2023-03-01T09:51:44;6.53;;;5.93;;
21771;SDS011;11047;47.904;8.110;2023-03-01T09:54:20;7.47;;;6.68;;
21771;SDS011;11047;47.904;8.110;2023-03-01T09:56:52;6.93;;;6.22;;
21771;SDS011;11047;47.904;8.110;2023-03-01T09:59:28;7.15;;;6.45;;
21771;SDS011;11047;47.904;8.110;2023-03-01T10:02:00;7.78;;;7.07;;
21771;SDS011;11047;47.904;8.110;2023-03-01T10:04:44;8.63;;;6.80;;
21771;SDS011;11047;47.904;8.110;2023-03-01T10:07:17;7.70;;;6.75;;
21771;SDS011;11047;47.904;8.110;2023-03-01T10:09:54;7.50;;;6.80;;
21771;SDS011;11047;47.904;8.110;2023-03-01T10:12:22;7.88;;;7.07;;
21771;SDS011;11047;47.904;8.110;2023-03-01T10:14:59;7.45;;;6.30;;
21771;SDS011;11047;47.904;8.110;2023-03-01T10:17:30;7.22;;;6.38;;
21771;SDS011;11047;47.904;8.110;2023-03-01T10:22:48;7.10;;;6.40;;
21771;SDS011;11047;47.904;8.110;2023-03-01T10:25:21;7.30;;;6.60;;
21771;SDS011;11047;47.904;8.110;2023-03-01T10:27:59;7.20;;;6.50;;
21771;SDS011;11047;47.904;8.110;2023-03-01T10:30:34;7.05;;;6.32;;
21771;SDS011;11047;47.904;8.110;2023-03-01T10:33:05;7.95;;;7.13;;
21771;SDS011;11047;47.904;8.110;2023-03-01T10:35:39;6.78;;;6.15;;
21771;SDS011;11047;47.904;8.110;2023-03-01T10:38:07;7.20;;;6.50;;
21771;SDS011;11047;47.904;8.110;2023-03-01T10:40:36;7.07;;;6.38;;
21771;SDS011;11047;47.904;8.110;2023-03-01T10:43:17;7.05;;;6.18;;
21771;SDS011;11047;47.904;8.110;2023-03-01T10:45:46;7.78;;;6.63;;
21771;SDS011;11047;47.904;8.110;2023-03-01T10:48:14;7.30;;;6.43;;
21771;SDS011;11047;47.904;8.110;2023-03-01T10:50:43;6.65;;;6.03;;
21771;SDS011;11047;47.904;8.110;2023-03-01T10:53:25;7.18;;;6.20;;
21771;SDS011;11047;47.904;8.110;2023-03-01T10:55:58;7.07;;;6.30;;
21771;SDS011;11047;47.904;8.110;2023-03-01T10:58:28;7.05;;;6.38;;
21771;SDS011;11047;47.904;8.110;2023-03-01T11:00:57;7.28;;;6.57;;
21771;SDS011;11047;47.904;8.110;2023-03-01T11:03:27;7.68;;;6.88;;
21771;SDS011;11047;47.904;8.110;2023-03-01T11:05:57;7.05;;;6.35;;
21771;SDS011;11047;47.904;8.110;2023-03-01T11:08:29;8.10;;;6.63;;
21771;SDS011;11047;47.904;8.110;2023-03-01T11:11:19;7.03;;;6.43;;
21771;SDS011;11047;47.904;8.110;2023-03-01T11:13:59;6.85;;;6.25;;
21771;SDS011;11047;47.904;8.110;2023-03-01T11:16:34;7.53;;;6.82;;
21771;SDS011;11047;47.904;8.110;2023-03-01T11:19:18;8.40;;;6.47;;
21771;SDS011;11047;47.904;8.110;2023-03-01T11:21:52;6.32;;;5.40;;
21771;SDS011;11047;47.904;8.110;2023-03-01T11:24:24;6.22;;;5.63;;
21771;SDS011;11047;47.904;8.110;2023-03-01T11:26:56;5.40;;;4.90;;
21771;SDS011;11047;47.904;8.110;2023-03-01T11:29:27;6.25;;;5.65;;
21771;SDS011;11047;47.904;8.110;2023-03-01T11:32:01;6.70;;;6.10;;
21771;SDS011;11047;47.904;8.110;2023-03-01T11:34:35;6.30;;;5.70;;
21771;SDS011;11047;47.904;8.110;2023-03-01T11:37:09;6.43;;;5.82;;
21771;SDS011;11047;47.904;8.110;2023-03-01T11:39:43;6.35;;;5.70;;
21771;SDS011;11047;47.904;8.110;2023-03-01T11:42:17;7.10;;;5.82;;
21771;SDS011;11047;47.904;8.110;2023-03-01T11:44:48;6.65;;;5.95;;
21771;SDS011;11047;47.904;8.110;2023-03-01T11:47:29;6.50;;;5.90;;
21771;SDS011;11047;47.904;8.110;2023-03-01T11:50:14;6.22;;;5.63;;
21771;SDS011;11047;47.904;8.110;2023-03-01T11:52:54;6.65;;;5.95;;
21771;SDS011;11047;47.904;8.110;2023-03-01T11:55:31;6.03;;;5.53;;
21771;SDS011;11047;47.904;8.110;2023-03-01T11:58:11;6.47;;;5.85;;
21771;SDS011;11047;47.904;8.110;2023-03-01T12:00:51;6.57;;;5.93;;
21771;SDS011;11047;47.904;8.110;2023-03-01T12:03:42;6.20;;;5.60;;
21771;SDS011;11047;47.904;8.110;2023-03-01T12:06:42;6.63;;;5.93;;
21771;SDS011;11047;47.904;8.110;2023-03-01T12:09:34;7.35;;;6.40;;
21771;SDS011;11047;47.904;8.110;2023-03-01T12:14:59;6.45;;;5.85;;
21771;SDS011;11047;47.904;8.110;2023-03-01T12:17:57;6.57;;;5.97;;
21771;SDS011;11047;47.904;8.110;2023-03-01T12:23:23;7.38;;;5.95;;
21771;SDS011;11047;47.904;8.110;2023-03-01T12:28:45;6.45;;;5.65;;
21771;SDS011;11047;47.904;8.110;2023-03-01T12:31:32;6.75;;;6.15;;
21771;SDS011;11047;47.904;8.110;2023-03-01T12:34:11;6.30;;;5.40;;
21771;SDS011;11047;47.904;8.110;2023-03-01T12:36:52;6.38;;;5.78;;
21771;SDS011;11047;47.904;8.110;2023-03-01T12:39:33;6.57;;;5.85;;
21771;SDS011;11047;47.904;8.110;2023-03-01T12:42:13;6.40;;;5.80;;
21771;SDS011;11047;47.904;8.110;2023-03-01T12:44:51;5.93;;;5.43;;
21771;SDS011;11047;47.904;8.110;2023-03-01T12:47:30;6.40;;;5.70;;
21771;SDS011;11047;47.904;8.110;2023-03-01T12:50:20;7.50;;;5.65;;
21771;SDS011;11047;47.904;8.110;2023-03-01T12:52:51;6.55;;;5.95;;
21771;SDS011;11047;47.904;8.110;2023-03-01T12:55:24;6.15;;;5.55;;
21771;SDS011;11047;47.904;8.110;2023-03-01T12:57:58;6.32;;;5.68;;
21771;SDS011;11047;47.904;8.110;2023-03-01T13:00:31;6.75;;;6.03;;
21771;SDS011;11047;47.904;8.110;2023-03-01T13:03:04;6.43;;;5.85;;
21771;SDS011;11047;47.904;8.110;2023-03-01T13:05:40;6.40;;;5.80;;
21771;SDS011;11047;47.904;8.110;2023-03-01T13:08:19;6.90;;;6.03;;
21771;SDS011;11047;47.904;8.110;2023-03-01T13:10:53;6.70;;;6.10;;
21771;SDS011;11047;47.904;8.110;2023-03-01T13:13:25;8.35;;;5.80;;
21771;SDS011;11047;47.904;8.110;2023-03-01T13:15:53;7.13;;;6.38;;
21771;SDS011;11047;47.904;8.110;2023-03-01T13:18:29;7.85;;;5.93;;
21771;SDS011;11047;47.904;8.110;2023-03-01T13:20:57;6.88;;;5.93;;
21771;SDS011;11047;47.904;8.110;2023-03-01T13:23:28;7.03;;;6.30;;
21771;SDS011;11047;47.904;8.110;2023-03-01T13:26:05;6.93;;;6.07;;
21771;SDS011;11047;47.904;8.110;2023-03-01T13:28:38;6.55;;;5.95;;
21771;SDS011;11047;47.904;8.110;2023-03-01T13:34:46;6.88;;;5.80;;
21771;SDS011;11047;47.904;8.110;2023-03-01T13:37:25;6.55;;;5.85;;
21771;SDS011;11047;47.904;8.110;2023-03-01T13:40:02;9.48;;;6.00;;
21771;SDS011;11047;47.904;8.110;2023-03-01T13:42:44;6.60;;;5.75;;
21771;SDS011;11047;47.904;8.110;2023-03-01T13:45:22;6.63;;;6.03;;
21771;SDS011;11047;47.904;8.110;2023-03-01T13:47:58;6.57;;;5.32;;
21771;SDS011;11047;47.904;8.110;2023-03-01T13:50:28;6.70;;;6.10;;
21771;SDS011;11047;47.904;8.110;2023-03-01T13:53:00;10.85;;;9.32;;
21771;SDS011;11047;47.904;8.110;2023-03-01T13:55:34;7.22;;;6.63;;
21771;SDS011;11047;47.904;8.110;2023-03-01T13:58:05;7.80;;;6.15;;
21771;SDS011;11047;47.904;8.110;2023-03-01T14:00:42;6.45;;;5.85;;
21771;SDS011;11047;47.904;8.110;2023-03-01T14:03:10;7.63;;;5.88;;
21771;SDS011;11047;47.904;8.110;2023-03-01T14:08:26;6.93;;;6.30;;
21771;SDS011;11047;47.904;8.110;2023-03-01T14:13:58;6.90;;;6.20;;
21771;SDS011;11047;47.904;8.110;2023-03-01T14:16:35;8.27;;;6.30;;
21771;SDS011;11047;47.904;8.110;2023-03-01T14:19:13;7.85;;;6.07;;
21771;SDS011;11047;47.904;8.110;2023-03-01T14:21:43;7.72;;;6.55;;
21771;SDS011;11047;47.904;8.110;2023-03-01T14:24:17;6.80;;;6.10;;
21771;SDS011;11047;47.904;8.110;2023-03-01T14:29:27;6.80;;;6.20;;
21771;SDS011;11047;47.904;8.110;2023-03-01T14:32:11;6.55;;;5.95;;
21771;SDS011;11047;47.904;8.110;2023-03-01T14:34:44;5.85;;;5.32;;
21771;SDS011;11047;47.904;8.110;2023-03-01T14:37:17;6.65;;;5.60;;
21771;SDS011;11047;47.904;8.110;2023-03-01T14:39:47;7.50;;;6.00;;
21771;SDS011;11047;47.904;8.110;2023-03-01T14:42:14;6.78;;;6.18;;
21771;SDS011;11047;47.904;8.110;2023-03-01T14:44:43;6.97;;;6.20;;
21771;SDS011;11047;47.904;8.110;2023-03-01T14:47:14;5.90;;;5.28;;
21771;SDS011;11047;47.904;8.110;2023-03-01T14:49:42;6.18;;;5.63;;
21771;SDS011;11047;47.904;8.110;2023-03-01T14:52:17;6.45;;;5.80;;
21771;SDS011;11047;47.904;8.110;2023-03-01T14:54:47;6.50;;;5.88;;
21771;SDS011;11047;47.904;8.110;2023-03-01T14:57:17;6.75;;;5.68;;
21771;SDS011;11047;47.904;8.110;2023-03-01T14:59:47;6.63;;;6.03;;
21771;SDS011;11047;47.904;8.110;2023-03-01T15:02:18;5.90;;;5.00;;
21771;SDS011;11047;47.904;8.110;2023-03-01T15:04:47;6.18;;;5.38;;
21771;SDS011;11047;47.904;8.110;2023-03-01T15:07:16;5.90;;;5.40;;
21771;SDS011;11047;47.904;8.110;2023-03-01T15:09:44;6.38;;;5.75;;
21771;SDS011;11047;47.904;8.110;2023-03-01T15:18:06;6.85;;;6.15;;
21771;SDS011;11047;47.904;8.110;2023-03-01T15:20:41;7.45;;;6.13;;
21771;SDS011;11047;47.904;8.110;2023-03-01T15:23:16;6.90;;;6.13;;
21771;SDS011;11047;47.904;8.110;2023-03-01T15:25:46;7.60;;;6.78;;
21771;SDS011;11047;47.904;8.110;2023-03-01T15:28:21;7.30;;;6.60;;
21771;SDS011;11047;47.904;8.110;2023-03-01T15:30:55;6.93;;;6.28;;
21771;SDS011;11047;47.904;8.110;2023-03-01T15:33:32;6.25;;;5.65;;
21771;SDS011;11047;47.904;8.110;2023-03-01T15:36:03;6.93;;;6.22;;
21771;SDS011;11047;47.904;8.110;2023-03-01T15:38:57;6.43;;;5.82;;
21771;SDS011;11047;47.904;8.110;2023-03-01T15:41:25;7.32;;;6.28;;
21771;SDS011;11047;47.904;8.110;2023-03-01T15:43:56;6.75;;;6.05;;
21771;SDS011;11047;47.904;8.110;2023-03-01T15:46:28;6.22;;;5.63;;
21771;SDS011;11047;47.904;8.110;2023-03-01T15:48:59;6.63;;;5.93;;
21771;SDS011;11047;47.904;8.110;2023-03-01T15:51:30;6.93;;;6.28;;
21771;SDS011;11047;47.904;8.110;2023-03-01T15:54:03;8.07;;;6.30;;